Dost 1 — TCPI — position and weather

sailwx.info

Track history (hours):
 
Tides and Currents Weather Stations Pressure Air Temp Water Temp Dewpoint Dewpoint Depression Visibility Wind Speed Wind Dir Waves Ship Positions

Dost 1

Last reported at 2015-Jun-18 22:33 UTC. Time now 2015-Jul-03 06:14 UTC.
Position N 40°59' E 028°60'.
Warning: this ship's position is 14 days out of date.

Length 115 m; draft 4.4 m.

Type: Cargo ship. MMSI: 271000303.

Date/timePositionNaut miles runAvg speedWind from/ knotsBaromVisibWave heightAir tempDewpointWater temp
2015-Jun-18 22:33N 40°59' E 028°60'9 8.5
2015-Jun-18 21:33N 40°51' E 029°03'6 5.7
2015-Jun-18 20:33N 40°52' E 029°10'0 0.0
2015-Jun-18 17:32N 40°52' E 029°10'0 0.0
2015-Jun-18 16:26N 40°52' E 029°10'0 0.0
2015-Jun-18 15:19N 40°52' E 029°10'0 0.0
2015-Jun-18 14:25N 40°52' E 029°10'  
2015-Jun-15 14:10N 40°45' E 029°22'0 0.0
2015-Jun-15 13:28N 40°45' E 029°22'0 0.0
2015-Jun-15 12:33N 40°45' E 029°22'0 0.0
2015-Jun-15 11:15N 40°45' E 029°22'0 0.0
2015-Jun-15 08:32N 40°45' E 029°22'0 0.0
2015-Jun-15 07:25N 40°45' E 029°22'0 0.0
2015-Jun-13 18:09N 40°45' E 029°22'0 0.0
2015-Jun-13 01:14N 40°45' E 029°22'0 0.0
2015-Jun-12 00:20N 40°45' E 029°22'0 0.0
2015-Jun-11 23:32N 40°45' E 029°22'0 0.0
2015-Jun-11 22:26N 40°45' E 029°22'0 0.0
2015-Jun-11 19:30N 40°45' E 029°22'0 0.0
2015-Jun-11 17:17N 40°45' E 029°22'1 0.1
2015-Jun-11 12:31N 40°45' E 029°22'8 8.0
2015-Jun-11 11:33N 40°43' E 029°12'1211.6
2015-Jun-11 10:33N 40°44' E 028°57'1511.3
2015-Jun-11 09:15N 40°46' E 028°38'226 8.8
2015-Jun-10 07:32N 37°40' E 025°51'1111.3
2015-Jun-10 06:34N 37°29' E 025°54'1111.2
2015-Jun-10 05:32N 37°22' E 026°05'  
Track history (hours):
 
Tides and Currents Weather Stations Pressure Air Temp Water Temp Dewpoint Dewpoint Depression Visibility Wind Speed Wind Dir Waves Ship Positions

Dost 1

Last reported at 2015-Jun-18 22:33 UTC. Time now 2015-Jul-03 06:14 UTC.
Position N 40°59' E 028°60'.
Warning: this ship's position is 14 days out of date.

Length 115 m; draft 4.4 m.

Type: Cargo ship. MMSI: 271000303.

Date/timePositionNaut miles runAvg speedWind from/ knotsBaromVisibWave heightAir tempDewpointWater temp
2015-Jun-18 22:33N 40°59' E 028°60'9 8.5
2015-Jun-18 21:33N 40°51' E 029°03'6 5.7
2015-Jun-18 20:33N 40°52' E 029°10'0 0.0
2015-Jun-18 17:32N 40°52' E 029°10'0 0.0
2015-Jun-18 16:26N 40°52' E 029°10'0 0.0
2015-Jun-18 15:19N 40°52' E 029°10'0 0.0
2015-Jun-18 14:25N 40°52' E 029°10'  
2015-Jun-15 14:10N 40°45' E 029°22'0 0.0
2015-Jun-15 13:28N 40°45' E 029°22'0 0.0
2015-Jun-15 12:33N 40°45' E 029°22'0 0.0
2015-Jun-15 11:15N 40°45' E 029°22'0 0.0
2015-Jun-15 08:32N 40°45' E 029°22'0 0.0
2015-Jun-15 07:25N 40°45' E 029°22'0 0.0
2015-Jun-13 18:09N 40°45' E 029°22'0 0.0
2015-Jun-13 01:14N 40°45' E 029°22'0 0.0
2015-Jun-12 00:20N 40°45' E 029°22'0 0.0
2015-Jun-11 23:32N 40°45' E 029°22'0 0.0
2015-Jun-11 22:26N 40°45' E 029°22'0 0.0
2015-Jun-11 19:30N 40°45' E 029°22'0 0.0
2015-Jun-11 17:17N 40°45' E 029°22'1 0.1
2015-Jun-11 12:31N 40°45' E 029°22'8 8.0
2015-Jun-11 11:33N 40°43' E 029°12'1211.6
2015-Jun-11 10:33N 40°44' E 028°57'1511.3
2015-Jun-11 09:15N 40°46' E 028°38'226 8.8
2015-Jun-10 07:32N 37°40' E 025°51'1111.3
2015-Jun-10 06:34N 37°29' E 025°54'1111.2
2015-Jun-10 05:32N 37°22' E 026°05'  

Dump ship's entire track history